createdAt,value
2024-03-22T00:00:13.884Z,3.38
2024-03-22T00:00:45.718Z,3.21
2024-03-22T00:01:15.755Z,3.05
2024-03-22T00:01:46.808Z,2.89
2024-03-22T00:02:17.808Z,2.89
2024-03-22T00:02:47.690Z,2.89
2024-03-22T00:03:19.549Z,2.89
2024-03-22T00:03:49.744Z,2.89
2024-03-22T00:04:21.603Z,2.49
2024-03-22T00:04:51.756Z,2.09
2024-03-22T00:05:23.671Z,2.09
2024-03-22T00:05:54.235Z,2.09
2024-03-22T00:06:25.653Z,2.09
2024-03-22T00:06:57.045Z,2.09
2024-03-22T00:07:26.828Z,2.09
2024-03-22T00:07:58.683Z,2.09
2024-03-22T00:08:28.711Z,2.09
2024-03-22T00:09:00.942Z,2.09
2024-03-22T00:09:31.008Z,2.33
2024-03-22T00:10:02.907Z,2.33
2024-03-22T00:10:32.785Z,2.33
2024-03-22T00:11:05.103Z,2.33
2024-03-22T00:11:35.527Z,2.33
2024-03-22T00:12:07.554Z,2.33
2024-03-22T00:12:36.774Z,2.09
2024-03-22T00:13:08.781Z,1.93
2024-03-22T00:13:38.762Z,1.77
2024-03-22T00:14:10.716Z,1.77
2024-03-22T00:14:40.774Z,1.77
2024-03-22T00:15:12.483Z,1.77
2024-03-22T00:15:42.746Z,1.77
2024-03-22T00:16:15.272Z,1.93
2024-03-22T00:16:44.737Z,2.09
2024-03-22T00:17:17.539Z,2.09
2024-03-22T00:17:46.830Z,2.09
2024-03-22T00:18:18.464Z,2.09
2024-03-22T00:18:48.992Z,2.09
2024-03-22T00:19:20.487Z,1.93
2024-03-22T00:19:51.389Z,1.93
2024-03-22T00:20:22.455Z,1.93
2024-03-22T00:20:53.694Z,2.09
2024-03-22T00:21:24.553Z,2.09
2024-03-22T00:21:54.827Z,2.09
2024-03-22T00:22:27.911Z,2.09
2024-03-22T00:22:56.780Z,2.09
2024-03-22T00:23:28.534Z,2.09
2024-03-22T00:23:58.748Z,2.09
2024-03-22T00:24:30.513Z,2.09
2024-03-22T00:25:02.429Z,2.09
2024-03-22T00:25:32.629Z,2.09
2024-03-22T00:26:02.887Z,1.93
2024-03-22T00:26:34.512Z,1.93
2024-03-22T00:27:05.078Z,1.77
2024-03-22T00:27:37.785Z,1.77
2024-03-22T00:28:06.743Z,1.77
2024-03-22T00:28:38.588Z,1.77
2024-03-22T00:29:08.699Z,1.77
2024-03-22T00:29:40.462Z,1.77
2024-03-22T00:30:15.122Z,1.77
2024-03-22T00:30:42.611Z,1.77
2024-03-22T00:31:12.729Z,1.77
2024-03-22T00:31:44.557Z,1.77
2024-03-22T00:32:14.738Z,1.77
2024-03-22T00:32:47.535Z,1.77
2024-03-22T00:33:16.933Z,1.77
2024-03-22T00:33:48.559Z,1.77
2024-03-22T00:34:18.951Z,1.77
2024-03-22T00:34:50.657Z,1.93
2024-03-22T00:35:21.322Z,2.09
2024-03-22T00:35:52.958Z,2.09
2024-03-22T00:36:23.095Z,2.33
2024-03-22T00:36:54.553Z,2.57
2024-03-22T00:37:24.744Z,2.73
2024-03-22T00:37:57.566Z,2.89
2024-03-22T00:38:26.744Z,2.89
2024-03-22T00:38:58.566Z,3.05
2024-03-22T00:39:29.011Z,3.21
2024-03-22T00:40:01.739Z,3.38
2024-03-22T00:40:36.857Z,3.54
2024-03-22T00:41:02.565Z,3.54
2024-03-22T00:41:32.816Z,3.54
2024-03-22T00:42:05.144Z,3.54
2024-03-22T00:42:34.928Z,3.54
2024-03-22T00:43:07.701Z,3.78
2024-03-22T00:43:36.796Z,4.02
2024-03-22T00:44:08.544Z,4.02
2024-03-22T00:44:38.759Z,4.02
2024-03-22T00:45:11.882Z,4.34
2024-03-22T00:45:40.815Z,4.66
2024-03-22T00:46:12.576Z,4.82
2024-03-22T00:46:43.580Z,5.23
2024-03-22T00:47:15.694Z,5.23
2024-03-22T00:47:44.790Z,5.23
2024-03-22T00:48:17.834Z,5.47
2024-03-22T00:48:46.765Z,5.47
2024-03-22T00:49:19.097Z,5.47
2024-03-22T00:49:48.867Z,5.47
2024-03-22T00:50:22.237Z,5.47
2024-03-22T00:50:51.115Z,5.23
2024-03-22T00:51:22.485Z,5.23
2024-03-22T00:51:52.728Z,5.23
2024-03-22T00:52:24.521Z,5.23
2024-03-22T00:52:54.745Z,5.23
2024-03-22T00:53:27.559Z,4.98
2024-03-22T00:53:56.762Z,4.82
2024-03-22T00:54:28.976Z,4.66
2024-03-22T00:54:58.834Z,4.34
2024-03-22T00:55:31.097Z,4.02
2024-03-22T00:56:01.544Z,4.02
2024-03-22T00:56:32.439Z,3.78
2024-03-22T00:57:02.886Z,3.54
2024-03-22T00:57:34.635Z,3.54
2024-03-22T00:58:04.800Z,3.54
2024-03-22T00:58:37.918Z,3.54
2024-03-22T00:59:06.889Z,3.54
2024-03-22T00:59:38.425Z,3.38
2024-03-22T01:00:11.779Z,3.21
2024-03-22T01:00:41.511Z,3.05
2024-03-22T01:01:11.123Z,2.89
2024-03-22T01:01:42.676Z,2.73
2024-03-22T01:02:12.757Z,2.57
2024-03-22T01:02:44.619Z,2.33
2024-03-22T01:03:14.798Z,2.09
2024-03-22T01:03:48.452Z,2.09
2024-03-22T01:04:16.800Z,2.09
2024-03-22T01:04:47.764Z,2.09
2024-03-22T01:05:19.984Z,2.09
2024-03-22T01:05:49.736Z,2.09
2024-03-22T01:06:23.274Z,2.49
2024-03-22T01:06:51.955Z,3.05
2024-03-22T01:07:22.761Z,2.49
2024-03-22T01:07:55.571Z,2.49
2024-03-22T01:08:24.904Z,2.49
2024-03-22T01:08:57.527Z,2.49
2024-03-22T01:09:26.776Z,2.89
2024-03-22T01:09:58.434Z,2.89
2024-03-22T01:10:29.238Z,3.05
2024-03-22T01:11:01.208Z,3.21
2024-03-22T01:11:31.299Z,3.21
2024-03-22T01:12:04.508Z,3.38
2024-03-22T01:12:32.829Z,3.54
2024-03-22T01:13:04.506Z,3.54
2024-03-22T01:13:35.012Z,3.54
2024-03-22T01:14:07.555Z,3.54
2024-03-22T01:14:36.775Z,3.54
2024-03-22T01:15:10.240Z,3.54
2024-03-22T01:15:38.825Z,3.54
2024-03-22T01:16:10.486Z,3.54
2024-03-22T01:16:40.754Z,3.54
2024-03-22T01:17:12.625Z,3.54
2024-03-22T01:17:42.751Z,3.54
2024-03-22T01:18:15.754Z,3.54
2024-03-22T01:18:44.776Z,3.54
2024-03-22T01:19:18.597Z,3.54
2024-03-22T01:19:46.742Z,3.54
2024-03-22T01:20:18.725Z,3.54
2024-03-22T01:20:49.474Z,3.54
2024-03-22T01:21:19.964Z,3.54
2024-03-22T01:21:51.881Z,3.54
2024-03-22T01:22:21.739Z,3.54
2024-03-22T01:22:53.902Z,3.54
2024-03-22T01:23:23.720Z,3.54
2024-03-22T01:23:55.526Z,3.54
2024-03-22T01:24:27.039Z,3.54
2024-03-22T01:24:57.555Z,3.54
2024-03-22T01:25:28.499Z,3.54
2024-03-22T01:25:59.655Z,3.38
2024-03-22T01:26:29.929Z,3.21
2024-03-22T01:27:02.512Z,3.21
2024-03-22T01:27:32.211Z,3.05
2024-03-22T01:28:03.548Z,2.89
2024-03-22T01:28:33.711Z,2.89
2024-03-22T01:29:05.651Z,2.89
2024-03-22T01:29:37.458Z,2.89
2024-03-22T01:30:08.955Z,2.89
2024-03-22T01:30:37.836Z,2.73
2024-03-22T01:31:09.571Z,2.57
2024-03-22T01:31:39.744Z,2.57
2024-03-22T01:32:11.826Z,2.57
2024-03-22T01:32:41.772Z,2.57
2024-03-22T01:33:13.557Z,2.33
2024-03-22T01:33:44.144Z,2.09
2024-03-22T01:34:18.487Z,2.09
2024-03-22T01:34:46.801Z,2.09
2024-03-22T01:35:17.242Z,1.93
2024-03-22T01:35:49.528Z,1.77
2024-03-22T01:36:19.103Z,1.93
2024-03-22T01:36:50.505Z,1.77
2024-03-22T01:37:20.765Z,1.77
2024-03-22T01:37:52.628Z,1.93
2024-03-22T01:38:22.926Z,2.09
2024-03-22T01:38:56.671Z,1.93
2024-03-22T01:39:24.760Z,1.77
2024-03-22T01:39:59.426Z,1.77
2024-03-22T01:40:29.609Z,1.77
2024-03-22T01:40:59.472Z,1.77
2024-03-22T01:41:29.592Z,1.77
2024-03-22T01:41:59.735Z,1.77
2024-03-22T01:42:33.882Z,1.93
2024-03-22T01:43:02.574Z,1.93
2024-03-22T01:43:37.450Z,1.77
2024-03-22T01:44:03.775Z,1.77
2024-03-22T01:44:34.752Z,1.77
2024-03-22T01:45:09.398Z,1.77
2024-03-22T01:45:36.805Z,1.93
2024-03-22T01:46:08.375Z,1.93
2024-03-22T01:46:39.604Z,1.93
2024-03-22T01:47:10.106Z,1.93
2024-03-22T01:47:41.929Z,1.93
2024-03-22T01:48:12.077Z,1.77
2024-03-22T01:48:43.521Z,1.77
2024-03-22T01:49:14.286Z,1.77
2024-03-22T01:49:45.533Z,1.77
2024-03-22T01:50:17.484Z,1.77
2024-03-22T01:50:47.418Z,1.77
2024-03-22T01:51:17.910Z,1.77
2024-03-22T01:51:49.524Z,1.77
2024-03-22T01:52:20.162Z,1.77
2024-03-22T01:52:51.993Z,1.77
2024-03-22T01:53:21.852Z,1.77
2024-03-22T01:53:53.676Z,1.77
2024-03-22T01:54:24.073Z,1.77
2024-03-22T01:54:55.507Z,1.77
2024-03-22T01:55:27.489Z,1.77
2024-03-22T01:55:58.447Z,1.77
2024-03-22T01:56:28.001Z,1.77
2024-03-22T01:57:02.506Z,1.77
2024-03-22T01:57:29.734Z,1.77
2024-03-22T01:58:01.135Z,1.77
2024-03-22T01:58:32.903Z,1.77
2024-03-22T01:59:02.898Z,1.93
2024-03-22T01:59:34.618Z,2.09
2024-03-22T02:00:06.783Z,2.09
2024-03-22T02:00:37.870Z,2.09
2024-03-22T02:01:08.767Z,2.33
2024-03-22T02:01:38.551Z,2.33
2024-03-22T02:02:08.826Z,2.33
2024-03-22T02:02:40.624Z,2.33
2024-03-22T02:03:11.186Z,2.17
2024-03-22T02:03:42.665Z,1.77
2024-03-22T02:04:12.746Z,1.77
2024-03-22T02:04:45.619Z,1.77
2024-03-22T02:05:15.397Z,1.77
2024-03-22T02:05:47.480Z,1.77
2024-03-22T02:06:17.005Z,1.77
2024-03-22T02:06:49.534Z,1.77
2024-03-22T02:07:19.193Z,1.77
2024-03-22T02:07:50.544Z,1.77
2024-03-22T02:08:20.874Z,1.77
2024-03-22T02:08:52.575Z,1.77
2024-03-22T02:09:22.837Z,1.77
2024-03-22T02:09:54.486Z,1.77
2024-03-22T02:10:25.552Z,1.77
2024-03-22T02:10:58.477Z,1.93
2024-03-22T02:11:26.815Z,1.77
2024-03-22T02:11:57.782Z,1.77
2024-03-22T02:12:29.973Z,1.93
2024-03-22T02:12:59.720Z,2.33
2024-03-22T02:13:32.300Z,2.89
2024-03-22T02:14:02.148Z,2.89
2024-03-22T02:14:34.266Z,2.89
2024-03-22T02:15:04.722Z,2.89
2024-03-22T02:15:35.994Z,2.89
2024-03-22T02:16:06.773Z,2.89
2024-03-22T02:16:37.781Z,2.89
2024-03-22T02:17:08.677Z,2.89
2024-03-22T02:17:39.612Z,2.33
2024-03-22T02:18:10.180Z,2.09
2024-03-22T02:18:41.438Z,1.93
2024-03-22T02:19:11.777Z,1.77
2024-03-22T02:19:43.433Z,1.77
2024-03-22T02:20:14.365Z,1.77
2024-03-22T02:20:48.397Z,1.77
2024-03-22T02:21:16.749Z,1.77
2024-03-22T02:21:47.691Z,1.61
2024-03-22T02:22:17.827Z,1.44
2024-03-22T02:22:50.622Z,1.28
2024-03-22T02:23:20.045Z,1.12
2024-03-22T02:23:52.192Z,1.12
2024-03-22T02:24:22.283Z,1.12
2024-03-22T02:24:53.495Z,1.12
2024-03-22T02:25:24.285Z,1.12
2024-03-22T02:25:55.519Z,1.28
2024-03-22T02:26:26.731Z,1.44
2024-03-22T02:26:57.666Z,1.61
2024-03-22T02:27:27.906Z,1.77
2024-03-22T02:27:59.467Z,1.77
2024-03-22T02:28:29.778Z,1.77
2024-03-22T02:29:02.659Z,1.93
2024-03-22T02:29:31.763Z,1.93
2024-03-22T02:30:05.581Z,1.93
2024-03-22T02:30:33.832Z,1.93
2024-03-22T02:31:05.494Z,1.93
2024-03-22T02:31:36.738Z,1.93
2024-03-22T02:32:09.657Z,2.09
2024-03-22T02:32:37.787Z,2.09
2024-03-22T02:33:08.743Z,2.49
2024-03-22T02:33:40.562Z,3.05
2024-03-22T02:34:11.312Z,3.21
2024-03-22T02:34:51.318Z,3.21
2024-03-22T02:35:13.361Z,3.38
2024-03-22T02:35:44.529Z,3.54
2024-03-22T02:36:15.585Z,3.54
2024-03-22T02:36:47.742Z,3.54
2024-03-22T02:37:16.796Z,3.54
2024-03-22T02:37:49.528Z,3.38
2024-03-22T02:38:18.803Z,3.21
2024-03-22T02:38:50.598Z,3.05
2024-03-22T02:39:21.004Z,3.21
2024-03-22T02:39:52.391Z,3.38
2024-03-22T02:40:23.226Z,3.54
2024-03-22T02:40:54.685Z,3.54
2024-03-22T02:41:24.760Z,3.54
2024-03-22T02:41:59.191Z,3.54
2024-03-22T02:42:27.143Z,3.54
2024-03-22T02:42:57.738Z,3.54
2024-03-22T02:43:30.615Z,3.54
2024-03-22T02:43:59.761Z,3.54
2024-03-22T02:44:31.746Z,3.54
2024-03-22T02:45:02.447Z,3.54
2024-03-22T02:45:35.007Z,3.54
2024-03-22T02:46:03.819Z,3.54
2024-03-22T02:46:35.612Z,3.54
2024-03-22T02:47:06.866Z,3.54
2024-03-22T02:47:37.745Z,3.38
2024-03-22T02:48:08.018Z,3.38
2024-03-22T02:48:39.669Z,3.38
2024-03-22T02:49:09.740Z,3.38
2024-03-22T02:49:41.523Z,3.38
2024-03-22T02:50:12.273Z,3.21
2024-03-22T02:50:43.570Z,2.89
2024-03-22T02:51:13.702Z,2.57
2024-03-22T02:51:47.578Z,2.57
2024-03-22T02:52:16.698Z,2.33
2024-03-22T02:52:46.775Z,2.09
2024-03-22T02:53:18.558Z,2.09
2024-03-22T02:53:48.733Z,2.09
2024-03-22T02:54:21.070Z,2.09
2024-03-22T02:54:51.031Z,2.09
2024-03-22T02:55:23.283Z,2.09
2024-03-22T02:55:52.821Z,1.93
2024-03-22T02:56:24.410Z,1.77
2024-03-22T02:56:54.710Z,1.77
2024-03-22T02:57:27.579Z,1.77
2024-03-22T02:57:56.810Z,1.77
2024-03-22T02:58:28.652Z,1.77
2024-03-22T02:58:58.752Z,1.77
2024-03-22T02:59:30.507Z,1.77
2024-03-22T03:00:01.842Z,1.77
2024-03-22T03:00:35.587Z,1.77
2024-03-22T03:01:04.469Z,1.77
2024-03-22T03:01:35.087Z,1.77
2024-03-22T03:02:05.284Z,1.77
2024-03-22T03:02:37.714Z,1.93
2024-03-22T03:03:06.864Z,2.09
2024-03-22T03:03:39.705Z,2.09
2024-03-22T03:04:08.744Z,2.09
2024-03-22T03:04:41.132Z,2.33
2024-03-22T03:05:11.766Z,2.73
2024-03-22T03:05:42.688Z,3.05
2024-03-22T03:06:13.029Z,3.05
2024-03-22T03:06:44.510Z,3.38
2024-03-22T03:07:15.370Z,3.78
2024-03-22T03:07:48.086Z,4.02
2024-03-22T03:08:17.253Z,4.18
2024-03-22T03:08:49.522Z,4.18
2024-03-22T03:09:18.776Z,4.34
2024-03-22T03:09:50.539Z,4.34
2024-03-22T03:10:22.503Z,4.34
2024-03-22T03:10:53.170Z,4.34
2024-03-22T03:11:22.950Z,4.34
2024-03-22T03:11:54.430Z,4.34
2024-03-22T03:12:24.951Z,4.18
2024-03-22T03:13:00.490Z,4.18
2024-03-22T03:13:26.764Z,3.78
2024-03-22T03:13:57.703Z,3.22
2024-03-22T03:14:29.721Z,2.73
2024-03-22T03:14:59.766Z,2.33
2024-03-22T03:15:33.675Z,1.93
2024-03-22T03:16:02.106Z,1.77
2024-03-22T03:16:33.743Z,1.77
2024-03-22T03:17:03.906Z,1.77
2024-03-22T03:17:35.919Z,1.77
2024-03-22T03:18:07.028Z,1.77
2024-03-22T03:18:37.444Z,1.77
2024-03-22T03:19:07.970Z,1.77
2024-03-22T03:19:39.408Z,1.77
2024-03-22T03:20:11.410Z,1.77
2024-03-22T03:20:41.535Z,1.77
2024-03-22T03:21:11.714Z,1.77
2024-03-22T03:21:44.437Z,1.77
2024-03-22T03:22:13.824Z,1.77
2024-03-22T03:22:45.490Z,1.77
2024-03-22T03:23:17.169Z,1.77
2024-03-22T03:23:47.443Z,1.61
2024-03-22T03:24:17.946Z,1.28
2024-03-22T03:24:49.552Z,1.28
2024-03-22T03:25:20.466Z,1.28
2024-03-22T03:25:58.930Z,1.28
2024-03-22T03:26:22.137Z,1.28
2024-03-22T03:26:52.715Z,1.12
2024-03-22T03:27:24.476Z,1.12
2024-03-22T03:27:54.751Z,1.12
2024-03-22T03:28:27.710Z,1.12
2024-03-22T03:28:56.787Z,1.12
2024-03-22T03:29:28.492Z,1.12
2024-03-22T03:29:58.700Z,1.12
2024-03-22T03:30:32.236Z,1.12
2024-03-22T03:31:01.366Z,1.12
2024-03-22T03:31:34.525Z,1.12
2024-03-22T03:32:03.019Z,1.12
2024-03-22T03:32:33.867Z,.88
2024-03-22T03:33:06.551Z,.64
2024-03-22T03:33:36.693Z,.64
2024-03-22T03:34:07.529Z,.32
2024-03-22T03:34:37.702Z,0
2024-03-22T03:35:10.168Z,0
2024-03-22T03:35:39.720Z,0
2024-03-22T03:36:12.555Z,0
2024-03-22T03:36:41.795Z,.32
2024-03-22T03:37:13.542Z,.64
2024-03-22T03:37:43.756Z,.64
2024-03-22T03:38:15.479Z,.64
2024-03-22T03:38:46.741Z,.64
2024-03-22T03:39:17.448Z,.64
2024-03-22T03:39:47.720Z,.64
2024-03-22T03:40:19.924Z,.64
2024-03-22T03:40:49.721Z,.64
2024-03-22T03:41:21.823Z,.64
2024-03-22T03:41:51.952Z,.64
2024-03-22T03:42:23.806Z,.64
2024-03-22T03:42:53.729Z,.88
2024-03-22T03:43:25.522Z,1.28
2024-03-22T03:43:56.723Z,1.44
2024-03-22T03:44:27.517Z,1.44
2024-03-22T03:44:57.703Z,1.44
2024-03-22T03:45:30.960Z,1.44
2024-03-22T03:45:59.791Z,1.44
2024-03-22T03:46:31.704Z,1.44
2024-03-22T03:47:01.938Z,1.44
2024-03-22T03:47:33.322Z,1.44
2024-03-22T03:48:03.885Z,1.44
2024-03-22T03:48:35.526Z,1.44
2024-03-22T03:49:06.855Z,1.44
2024-03-22T03:49:37.314Z,1.44
2024-03-22T03:50:08.763Z,1.44
2024-03-22T03:50:39.564Z,1.44
2024-03-22T03:51:09.836Z,1.44
2024-03-22T03:51:41.405Z,1.44
2024-03-22T03:52:12.021Z,1.61
2024-03-22T03:52:43.430Z,1.61
2024-03-22T03:53:13.735Z,1.77
2024-03-22T03:53:45.344Z,1.77
2024-03-22T03:54:17.028Z,1.77
2024-03-22T03:54:47.796Z,1.77
2024-03-22T03:55:18.446Z,1.77
2024-03-22T03:55:49.436Z,1.77
2024-03-22T03:56:19.714Z,1.77
2024-03-22T03:56:51.720Z,1.77
2024-03-22T03:57:21.739Z,1.77
2024-03-22T03:57:53.308Z,1.77
2024-03-22T03:58:23.781Z,1.77
2024-03-22T03:58:55.278Z,1.77
2024-03-22T03:59:26.765Z,1.77
2024-03-22T03:59:57.417Z,1.77
2024-03-22T04:00:29.588Z,1.77
2024-03-22T04:00:59.496Z,1.77
2024-03-22T04:01:29.799Z,1.77
2024-03-22T04:02:02.070Z,1.77
2024-03-22T04:02:31.951Z,1.77
2024-03-22T04:03:04.635Z,1.77
2024-03-22T04:03:34.144Z,1.93
2024-03-22T04:04:06.923Z,1.77
2024-03-22T04:04:36.744Z,1.77
2024-03-22T04:05:07.838Z,1.77
2024-03-22T04:05:38.333Z,1.77
2024-03-22T04:06:09.834Z,1.77
2024-03-22T04:06:40.080Z,1.77
2024-03-22T04:07:11.185Z,1.77
2024-03-22T04:07:42.222Z,1.93
2024-03-22T04:08:13.552Z,1.77
2024-03-22T04:08:43.813Z,1.77
2024-03-22T04:09:15.343Z,1.77
2024-03-22T04:09:46.718Z,1.77
2024-03-22T04:10:19.367Z,1.77
2024-03-22T04:10:47.833Z,1.93
2024-03-22T04:11:19.421Z,1.77
2024-03-22T04:11:49.744Z,1.77
2024-03-22T04:12:21.676Z,1.77
2024-03-22T04:12:51.755Z,1.77
2024-03-22T04:13:23.493Z,1.77
2024-03-22T04:13:53.780Z,1.61
2024-03-22T04:14:25.474Z,1.44
2024-03-22T04:14:57.512Z,1.44
2024-03-22T04:15:28.620Z,1.28
2024-03-22T04:15:57.811Z,1.28
2024-03-22T04:16:29.997Z,.88
2024-03-22T04:16:59.954Z,.32
2024-03-22T04:17:31.814Z,.16
2024-03-22T04:18:02.173Z,0
2024-03-22T04:18:35.353Z,0
2024-03-22T04:19:04.092Z,0
2024-03-22T04:19:35.519Z,0
2024-03-22T04:20:06.912Z,0
2024-03-22T04:20:37.863Z,0
2024-03-22T04:21:07.829Z,0
2024-03-22T04:21:39.958Z,0
2024-03-22T04:22:09.816Z,0
2024-03-22T04:22:41.484Z,0
2024-03-22T04:23:11.924Z,0
2024-03-22T04:23:43.560Z,.16
2024-03-22T04:24:14.089Z,.72
2024-03-22T04:24:45.415Z,1.12
2024-03-22T04:25:17.480Z,1.28
2024-03-22T04:25:47.237Z,1.61
2024-03-22T04:26:17.806Z,1.77
2024-03-22T04:26:49.519Z,1.77
2024-03-22T04:27:19.797Z,1.77
2024-03-22T04:27:51.906Z,1.77
2024-03-22T04:28:21.934Z,1.77
2024-03-22T04:28:53.462Z,1.93
2024-03-22T04:29:23.788Z,2.09
2024-03-22T04:29:55.558Z,2.09
2024-03-22T04:30:27.976Z,2.09
2024-03-22T04:30:57.509Z,2.09
2024-03-22T04:31:27.961Z,1.93
2024-03-22T04:32:01.418Z,1.77
2024-03-22T04:32:30.160Z,1.77
2024-03-22T04:33:02.927Z,1.77
2024-03-22T04:33:31.879Z,1.77
2024-03-22T04:34:03.693Z,1.61
2024-03-22T04:34:33.860Z,1.61
2024-03-22T04:35:05.777Z,1.44
2024-03-22T04:35:37.885Z,1.44
2024-03-22T04:36:07.291Z,1.44
2024-03-22T04:36:38.046Z,1.28
2024-03-22T04:37:09.740Z,1.28
2024-03-22T04:37:39.795Z,1.28
2024-03-22T04:38:11.651Z,1.44
2024-03-22T04:38:41.790Z,1.28
2024-03-22T04:39:13.479Z,1.12
2024-03-22T04:39:43.762Z,1.12
2024-03-22T04:40:16.024Z,1.12
2024-03-22T04:40:46.702Z,1.12
2024-03-22T04:41:17.619Z,.88
2024-03-22T04:41:47.864Z,.88
2024-03-22T04:42:19.915Z,.64
2024-03-22T04:42:49.822Z,.48
2024-03-22T04:43:21.385Z,.48
2024-03-22T04:43:51.779Z,.48
2024-03-22T04:44:23.637Z,.16
2024-03-22T04:44:53.778Z,0
2024-03-22T04:45:26.326Z,0
2024-03-22T04:45:56.904Z,0
2024-03-22T04:46:27.567Z,0
2024-03-22T04:46:57.798Z,0
2024-03-22T04:47:29.480Z,0
2024-03-22T04:47:59.691Z,0
2024-03-22T04:48:32.351Z,0
2024-03-22T04:49:01.763Z,0
2024-03-22T04:49:33.450Z,0
2024-03-22T04:50:03.736Z,0
2024-03-22T04:50:35.977Z,0
2024-03-22T04:51:07.531Z,0
2024-03-22T04:51:37.386Z,0
2024-03-22T04:52:07.662Z,0
2024-03-22T04:52:39.318Z,0
2024-03-22T04:53:09.710Z,0
2024-03-22T04:53:42.282Z,0
2024-03-22T04:54:11.957Z,0
2024-03-22T04:54:43.382Z,.56
2024-03-22T04:55:14.580Z,1.28
2024-03-22T04:55:45.383Z,1.44
2024-03-22T04:56:16.794Z,1.61
2024-03-22T04:56:47.292Z,1.77
2024-03-22T04:57:17.750Z,1.77
2024-03-22T04:57:49.273Z,1.77
2024-03-22T04:58:19.687Z,1.77
2024-03-22T04:58:51.706Z,1.77
2024-03-22T04:59:21.975Z,1.77
2024-03-22T04:59:53.270Z,1.77
2024-03-22T05:00:25.605Z,1.77
2024-03-22T05:00:55.328Z,1.77
2024-03-22T05:01:26.715Z,1.77
2024-03-22T05:01:57.844Z,1.77
2024-03-22T05:02:27.812Z,1.77
2024-03-22T05:02:59.540Z,1.77
2024-03-22T05:03:29.959Z,1.77
2024-03-22T05:04:02.151Z,1.77
2024-03-22T05:04:31.841Z,1.77
2024-03-22T05:05:03.917Z,1.77
2024-03-22T05:05:34.467Z,1.77
2024-03-22T05:06:05.590Z,1.77
2024-03-22T05:06:37.194Z,1.61
2024-03-22T05:07:06.869Z,1.61
2024-03-22T05:07:37.820Z,1.61
2024-03-22T05:08:09.410Z,1.61
2024-03-22T05:08:39.894Z,1.61
2024-03-22T05:09:11.871Z,1.61
2024-03-22T05:09:42.526Z,1.61
2024-03-22T05:10:14.057Z,1.44
2024-03-22T05:10:43.884Z,1.28
2024-03-22T05:11:15.691Z,1.12
2024-03-22T05:11:46.932Z,.88
2024-03-22T05:12:17.812Z,.32
2024-03-22T05:12:48.407Z,0
2024-03-22T05:13:19.582Z,0
2024-03-22T05:13:49.862Z,0
2024-03-22T05:14:21.482Z,0
2024-03-22T05:14:51.858Z,0
2024-03-22T05:15:24.600Z,0
2024-03-22T05:15:53.843Z,0
2024-03-22T05:16:25.521Z,0
2024-03-22T05:16:57.273Z,0
2024-03-22T05:17:27.484Z,0
2024-03-22T05:17:57.823Z,0
2024-03-22T05:18:29.992Z,0
2024-03-22T05:19:00.435Z,0
2024-03-22T05:19:32.488Z,0
2024-03-22T05:20:02.225Z,0
2024-03-22T05:20:34.000Z,0
2024-03-22T05:21:04.297Z,0
2024-03-22T05:21:35.947Z,0
2024-03-22T05:22:07.141Z,0
2024-03-22T05:22:37.951Z,0
2024-03-22T05:23:07.808Z,0
2024-03-22T05:23:39.432Z,0
2024-03-22T05:24:10.110Z,0
2024-03-22T05:24:41.480Z,0
2024-03-22T05:25:12.396Z,0
2024-03-22T05:25:43.440Z,0
2024-03-22T05:26:14.182Z,0
2024-03-22T05:26:46.574Z,0
2024-03-22T05:27:16.834Z,0
2024-03-22T05:27:47.892Z,0
2024-03-22T05:28:17.894Z,.16
2024-03-22T05:28:50.610Z,.32
2024-03-22T05:29:20.017Z,.32
2024-03-22T05:29:51.729Z,.32
2024-03-22T05:30:23.548Z,.32
2024-03-22T05:30:53.507Z,.32
2024-03-22T05:31:23.806Z,.32
2024-03-22T05:31:55.386Z,.32
2024-03-22T05:32:26.860Z,.32
2024-03-22T05:32:57.600Z,.32
2024-03-22T05:33:27.855Z,.32
2024-03-22T05:33:59.520Z,.16
2024-03-22T05:34:29.848Z,0
2024-03-22T05:35:02.314Z,0
2024-03-22T05:35:32.711Z,0
2024-03-22T05:36:03.638Z,0
2024-03-22T05:36:34.653Z,0
2024-03-22T05:37:05.395Z,0
2024-03-22T05:37:36.828Z,0
2024-03-22T05:38:07.624Z,0
2024-03-22T05:38:37.946Z,0
2024-03-22T05:39:09.524Z,0
2024-03-22T05:39:39.991Z,0
2024-03-22T05:40:12.898Z,0
2024-03-22T05:40:41.795Z,0
2024-03-22T05:41:13.580Z,0
2024-03-22T05:41:43.892Z,0
2024-03-22T05:42:16.394Z,.16
2024-03-22T05:42:47.033Z,.48
2024-03-22T05:43:17.438Z,.64
2024-03-22T05:43:47.890Z,.88
2024-03-22T05:44:20.400Z,1.12
2024-03-22T05:44:49.863Z,1.12
2024-03-22T05:45:22.339Z,1.12
2024-03-22T05:45:51.898Z,1.12
2024-03-22T05:46:23.415Z,1.12
2024-03-22T05:46:54.088Z,1.12
2024-03-22T05:47:34.113Z,1.12
2024-03-22T05:47:56.896Z,1.12
2024-03-22T05:48:27.721Z,1.12
2024-03-22T05:48:57.878Z,1.12
2024-03-22T05:49:29.446Z,1.12
2024-03-22T05:49:59.932Z,1.12
2024-03-22T05:50:38.699Z,1.12
2024-03-22T05:50:41.783Z,1.12
2024-03-22T05:51:02.596Z,1.12
2024-03-22T05:51:34.800Z,1.12
2024-03-22T05:52:03.873Z,.88
2024-03-22T05:52:40.390Z,.64
2024-03-22T05:53:06.914Z,.48
2024-03-22T05:53:36.835Z,.32
2024-03-22T05:54:08.444Z,.16
2024-03-22T05:54:39.156Z,0
2024-03-22T05:55:11.379Z,0
2024-03-22T05:55:40.883Z,0
2024-03-22T05:56:12.509Z,0
2024-03-22T05:56:42.938Z,0
2024-03-22T05:57:14.418Z,0
2024-03-22T05:57:44.810Z,0
2024-03-22T05:58:17.824Z,0
2024-03-22T05:58:46.890Z,0
2024-03-22T05:59:18.391Z,0
2024-03-22T05:59:49.095Z,0
2024-03-22T06:00:22.577Z,0
2024-03-22T06:00:51.263Z,0
2024-03-22T06:01:22.464Z,0
2024-03-22T06:01:52.792Z,0
2024-03-22T06:02:25.820Z,0
2024-03-22T06:02:55.268Z,0
2024-03-22T06:03:27.620Z,0
2024-03-22T06:03:56.824Z,0
2024-03-22T06:04:28.519Z,0
2024-03-22T06:04:58.804Z,0
2024-03-22T06:05:31.247Z,0
2024-03-22T06:06:01.191Z,0
2024-03-22T06:06:32.909Z,0
2024-03-22T06:07:03.013Z,0
2024-03-22T06:07:33.896Z,0
2024-03-22T06:08:05.379Z,0
2024-03-22T06:08:36.784Z,0
2024-03-22T06:09:08.047Z,0
2024-03-22T06:09:37.903Z,0
2024-03-22T06:10:09.536Z,0
2024-03-22T06:10:40.477Z,.16
2024-03-22T06:11:13.855Z,0
2024-03-22T06:11:41.796Z,0
2024-03-22T06:12:13.786Z,0
2024-03-22T06:12:44.372Z,0
2024-03-22T06:13:15.461Z,0
2024-03-22T06:13:46.890Z,0
2024-03-22T06:14:17.394Z,0
2024-03-22T06:14:47.959Z,0
2024-03-22T06:15:20.618Z,0
2024-03-22T06:15:49.901Z,0
2024-03-22T06:16:23.140Z,0
2024-03-22T06:16:51.898Z,.16
2024-03-22T06:17:23.450Z,.72
2024-03-22T06:17:53.883Z,1.28
2024-03-22T06:18:26.338Z,1.61
2024-03-22T06:18:56.858Z,1.77
2024-03-22T06:19:27.602Z,1.93
2024-03-22T06:19:58.575Z,2.09
2024-03-22T06:20:30.256Z,2.09
2024-03-22T06:20:59.887Z,2.09
2024-03-22T06:21:32.070Z,2.09
2024-03-22T06:22:02.023Z,2.09
2024-03-22T06:22:33.966Z,2.09
2024-03-22T06:23:03.889Z,2.09
2024-03-22T06:23:35.518Z,2.09
2024-03-22T06:24:06.845Z,2.09
2024-03-22T06:24:38.149Z,2.09
2024-03-22T06:25:07.828Z,2.09
2024-03-22T06:25:39.886Z,2.09
2024-03-22T06:26:10.179Z,2.09
2024-03-22T06:26:45.944Z,1.93
2024-03-22T06:27:11.790Z,1.93
2024-03-22T06:27:45.641Z,1.93
2024-03-22T06:28:13.862Z,1.77
2024-03-22T06:28:45.566Z,1.77
2024-03-22T06:29:17.116Z,1.77
2024-03-22T06:29:47.607Z,1.77
2024-03-22T06:30:21.120Z,1.77
2024-03-22T06:30:49.538Z,1.77
2024-03-22T06:31:19.810Z,1.77
2024-03-22T06:31:51.916Z,1.77
2024-03-22T06:32:21.800Z,1.61
2024-03-22T06:32:53.399Z,1.61
2024-03-22T06:33:24.314Z,1.44
2024-03-22T06:33:55.419Z,1.44
2024-03-22T06:34:26.964Z,1.44
2024-03-22T06:34:57.923Z,1.44
2024-03-22T06:35:30.511Z,1.44
2024-03-22T06:35:59.915Z,1.44
2024-03-22T06:36:30.128Z,1.28
2024-03-22T06:37:01.536Z,1.12
2024-03-22T06:37:31.826Z,.88
2024-03-22T06:38:03.718Z,.88
2024-03-22T06:38:33.908Z,.88
2024-03-22T06:39:05.485Z,.88
2024-03-22T06:39:36.872Z,.88
2024-03-22T06:40:07.645Z,.88
2024-03-22T06:40:38.347Z,1.12
2024-03-22T06:41:09.451Z,.88
2024-03-22T06:41:39.820Z,.88
2024-03-22T06:42:12.058Z,.88
2024-03-22T06:42:41.859Z,.64
2024-03-22T06:43:13.475Z,.64
2024-03-22T06:43:43.906Z,.64
2024-03-22T06:44:15.612Z,.48
2024-03-22T06:44:46.857Z,.16
2024-03-22T06:45:18.335Z,0
2024-03-22T06:45:47.874Z,0
2024-03-22T06:46:19.430Z,0
2024-03-22T06:46:50.204Z,0
2024-03-22T06:47:21.512Z,0
2024-03-22T06:47:51.805Z,0
2024-03-22T06:48:23.629Z,0
2024-03-22T06:48:53.812Z,0
2024-03-22T06:49:25.517Z,0
2024-03-22T06:49:57.296Z,0
2024-03-22T06:50:27.914Z,0
2024-03-22T06:50:58.286Z,0
2024-03-22T06:51:29.445Z,0
2024-03-22T06:51:59.988Z,0
2024-03-22T06:52:31.817Z,0
2024-03-22T06:53:02.155Z,0
2024-03-22T06:53:33.695Z,0
2024-03-22T06:54:03.924Z,0
2024-03-22T06:54:36.540Z,0
2024-03-22T06:55:06.982Z,0
2024-03-22T06:55:37.959Z,0
2024-03-22T06:56:07.814Z,0
2024-03-22T06:56:39.482Z,0
2024-03-22T06:57:10.145Z,.16
2024-03-22T06:57:41.504Z,.48
2024-03-22T06:58:11.964Z,.88
2024-03-22T06:58:43.378Z,1.12
2024-03-22T06:59:13.838Z,1.12
2024-03-22T06:59:45.551Z,1.28
2024-03-22T07:00:18.365Z,1.44
2024-03-22T07:00:47.492Z,1.44